Pleasanton, CA (94566)

1:20 AM PST on December 09, 2016 (GMT -0800)
Pleasanton Downtown | | Change Station

Elev 384 ft 37.66 °N, 121.87 °W | Updated 7 seconds ago

Overcast
Overcast
55.3 °F
Feels Like 55.3 °F
N
0.0
Wind Variable Wind from SSE

Today
High -- | Low -- °F
--% Chance of Precip.
Yesterday
High -- | Low -- °F
Precip. -- in
Pressure 30.19 in
Visibility 10.0 miles
Clouds Scattered Clouds 4500 ft
Scattered Clouds 5500 ft
Dew Point 55 °F
Humidity 98%
Rainfall 0.00 in
Snow Depth Not available.
7:11 AM 4:48 PM
Waxing Gibbous, 72% visible
METAR KLVK 090853Z 00000KT 10SM SCT045 SCT055 13/12 A3019 RMK AO2 SLP222 60001 T01280122 58000
Pressure 30.19 in
Visibility 10.0 miles
Clouds Scattered Clouds 4500 ft
Scattered Clouds 5500 ft
Dew Point 55 °F
Humidity 98%
Rainfall 0.00 in
Snow Depth Not available.
7:11 AM 4:48 PM
Waxing Gibbous, 72% visible
METAR KLVK 090853Z 00000KT 10SM SCT045 SCT055 13/12 A3019 RMK AO2 SLP222 60001 T01280122 58000

10-Day Weather Forecast

Almanac

Astronomy

Dec. 09, 2016 Rise Set
Actual Time
Civil Twilight
Nautical Twilight
Astronomical Twilight
Moon
Length of Visible Light
Length of Day
Tomorrow will be .
, % of the Moon is Illuminated

Today's Extremes

State Highs State Lows

Community

WunderPhotos

Upload Photos

1,956,371 photos uploaded!

WunderBlog® & News

Nearby

Air Quality

  Air Quality AQ Index Pollutant
Not available.

Snow Depth

Station Depth Elevation

Earthquake Activity

City Distance Mag. Time & Date
Minimum magnitude displayed is 2.5.

Coastal Water Temperatures

Place Temperature

Stations

Nearby Weather Stations

Station Location Temp. Windchill Dew Point Humidity Wind Precip. Elev Updated Type
                   

Watches & Warnings

There are currently no watches in effect.